createdAt,value
2022-11-16T00:01:56.777Z,99724.41
2022-11-16T00:04:43.147Z,99732.31
2022-11-16T00:07:29.483Z,99737.69
2022-11-16T00:10:15.716Z,99721.75
2022-11-16T00:13:02.184Z,99713.38
2022-11-16T00:15:56.235Z,99721.47
2022-11-16T00:18:42.706Z,99716.66
2022-11-16T00:21:29.490Z,99717.50
2022-11-16T00:24:17.698Z,99727.00
2022-11-16T00:27:03.601Z,99725.38
2022-11-16T00:29:49.767Z,99741.13
2022-11-16T00:32:36.100Z,99738.16
2022-11-16T00:35:22.494Z,99733.59
2022-11-16T00:38:08.695Z,99735.44
2022-11-16T00:40:55.441Z,99726.28
2022-11-16T00:43:41.269Z,99739.53
2022-11-16T00:46:27.955Z,99710.34
2022-11-16T00:49:14.045Z,99716.84
2022-11-16T00:52:00.534Z,99704.13
2022-11-16T00:54:46.642Z,99737.94
2022-11-16T00:57:33.027Z,99731.41
2022-11-16T01:00:19.596Z,99731.69
2022-11-16T01:03:06.372Z,99731.41
2022-11-16T01:05:52.262Z,99726.53
2022-11-16T01:08:40.121Z,99732.75
2022-11-16T01:11:44.700Z,99715.97
2022-11-16T01:14:30.946Z,99734.13
2022-11-16T01:17:17.154Z,99720.03
2022-11-16T01:20:06.252Z,99722.19
2022-11-16T01:22:52.983Z,99723.81
2022-11-16T01:25:39.081Z,99731.44
2022-11-16T01:28:25.141Z,99730.38
2022-11-16T01:31:11.575Z,99713.41
2022-11-16T01:33:57.531Z,99716.34
2022-11-16T01:36:47.060Z,99716.34
2022-11-16T01:39:32.953Z,99709.59
2022-11-16T01:42:27.393Z,99707.41
2022-11-16T01:45:22.369Z,99721.78
2022-11-16T01:48:15.336Z,99720.16
2022-11-16T01:51:01.207Z,99700.94
2022-11-16T01:53:49.752Z,99715.25
2022-11-16T01:56:38.088Z,99699.78
2022-11-16T01:59:29.951Z,99717.66
2022-11-16T02:02:17.297Z,99700.31
2022-11-16T02:05:04.870Z,99688.72
2022-11-16T02:08:50.512Z,99708.41
2022-11-16T02:11:54.996Z,99669.72
2022-11-16T02:14:59.648Z,99700.22
2022-11-16T02:18:12.740Z,99682.91
2022-11-16T02:21:29.049Z,99692.03
2022-11-16T02:24:30.170Z,99696.72
2022-11-16T02:27:43.986Z,99694.25
2022-11-16T02:30:29.586Z,99695.59
2022-11-16T02:33:18.974Z,99678.03
2022-11-16T02:36:06.495Z,99686.88
2022-11-16T02:38:57.155Z,99678.53
2022-11-16T02:41:45.873Z,99697.47
2022-11-16T02:44:35.111Z,99680.94
2022-11-16T02:47:23.735Z,99677.94
2022-11-16T02:50:18.902Z,99680.41
2022-11-16T02:53:04.737Z,99663.88
2022-11-16T02:55:52.744Z,99666.56
2022-11-16T02:58:38.622Z,99672.78
2022-11-16T03:01:35.377Z,99680.88
2022-11-16T03:04:33.470Z,99642.75
2022-11-16T03:07:25.723Z,99675.47
2022-11-16T03:10:34.855Z,99670.31
2022-11-16T03:13:25.071Z,99666.00
2022-11-16T03:16:27.881Z,99668.13
2022-11-16T03:19:20.957Z,99637.56
2022-11-16T03:22:26.071Z,99673.03
2022-11-16T03:25:13.729Z,99672.16
2022-11-16T03:27:59.826Z,99671.13
2022-11-16T03:30:55.835Z,99628.69
2022-11-16T03:33:46.630Z,99657.03
2022-11-16T03:36:35.571Z,99660.00
2022-11-16T03:39:30.966Z,99645.06
2022-11-16T03:42:21.415Z,99647.81
2022-11-16T03:45:08.666Z,99645.38
2022-11-16T03:47:54.203Z,99640.47
2022-11-16T03:50:41.312Z,99635.31
2022-11-16T03:53:27.771Z,99642.69
2022-11-16T03:56:13.938Z,99661.31
2022-11-16T03:59:00.198Z,99663.22
2022-11-16T04:01:48.502Z,99657.28
2022-11-16T04:04:53.087Z,99645.63
2022-11-16T04:07:59.796Z,99638.38
2022-11-16T04:11:04.706Z,99648.84
2022-11-16T04:14:11.176Z,99653.47
2022-11-16T04:17:18.645Z,99640.69
2022-11-16T04:20:24.471Z,99629.28
2022-11-16T04:23:33.892Z,99633.94
2022-11-16T04:26:41.764Z,99636.34
2022-11-16T04:29:27.542Z,99624.72
2022-11-16T04:32:32.351Z,99612.81
2022-11-16T04:35:36.710Z,99632.53
2022-11-16T04:38:22.687Z,99632.81
2022-11-16T04:41:28.575Z,99632.53
2022-11-16T04:44:15.742Z,99626.03
2022-11-16T04:47:07.018Z,99616.00
2022-11-16T04:49:54.240Z,99617.28
2022-11-16T04:52:41.233Z,99601.63
2022-11-16T04:55:30.002Z,99628.09
2022-11-16T04:58:17.099Z,99599.50
2022-11-16T05:01:03.494Z,99583.00
2022-11-16T05:03:49.818Z,99622.16
2022-11-16T05:06:36.789Z,99626.75
2022-11-16T05:09:22.459Z,99592.69
2022-11-16T05:12:22.861Z,99627.81
2022-11-16T05:15:12.603Z,99605.66
2022-11-16T05:17:59.110Z,99615.94
2022-11-16T05:21:00.607Z,99613.75
2022-11-16T05:24:08.991Z,99579.97
2022-11-16T05:26:55.744Z,99604.00
2022-11-16T05:29:42.311Z,99600.53
2022-11-16T05:32:28.420Z,99599.38
2022-11-16T05:35:18.474Z,99606.44
2022-11-16T05:38:04.917Z,99584.50
2022-11-16T05:40:54.617Z,99594.53
2022-11-16T05:43:41.135Z,99599.59
2022-11-16T05:46:33.193Z,99609.09
2022-11-16T05:49:20.111Z,99605.63
2022-11-16T05:52:06.347Z,99602.31
2022-11-16T05:54:53.250Z,99582.59
2022-11-16T05:57:39.710Z,99600.72
2022-11-16T06:00:25.839Z,99601.00
2022-11-16T06:03:13.104Z,99588.84
2022-11-16T06:05:59.307Z,99592.59
2022-11-16T06:08:47.441Z,99583.66
2022-11-16T06:11:39.117Z,99593.38
2022-11-16T06:14:25.747Z,99573.66
2022-11-16T06:17:14.551Z,99589.56
2022-11-16T06:20:01.193Z,99559.66
2022-11-16T06:22:46.579Z,99559.34
2022-11-16T06:25:33.488Z,99575.78
2022-11-16T06:28:19.126Z,99569.00
2022-11-16T06:31:05.475Z,99564.38
2022-11-16T06:33:55.074Z,99586.84
2022-11-16T06:36:44.694Z,99596.09
2022-11-16T06:39:31.211Z,99583.88
2022-11-16T06:42:17.519Z,99573.09
2022-11-16T06:45:03.404Z,99586.03
2022-11-16T06:47:54.915Z,99584.94
2022-11-16T06:50:40.784Z,99581.94
2022-11-16T06:53:29.413Z,99554.34
2022-11-16T06:56:17.941Z,99597.63
2022-11-16T06:59:10.201Z,99586.44
2022-11-16T07:01:55.993Z,99578.13
2022-11-16T07:04:42.477Z,99553.81
2022-11-16T07:07:29.408Z,99578.13
2022-11-16T07:10:15.971Z,99591.88
2022-11-16T07:13:03.658Z,99574.31
2022-11-16T07:15:50.356Z,99589.41
2022-11-16T07:18:38.274Z,99586.97
2022-11-16T07:21:24.400Z,99596.28
2022-11-16T07:24:12.480Z,99582.75
2022-11-16T07:26:59.320Z,99577.16
2022-11-16T07:29:47.098Z,99585.00
2022-11-16T07:33:01.883Z,99591.50
2022-11-16T07:36:14.460Z,99583.66
2022-11-16T07:39:00.522Z,99572.03
2022-11-16T07:41:47.060Z,99563.72
2022-11-16T07:45:07.270Z,99601.56
2022-11-16T07:47:58.316Z,99593.97
2022-11-16T07:51:09.839Z,99586.69
2022-11-16T07:54:01.449Z,99598.81
2022-11-16T07:56:47.420Z,99598.00
2022-11-16T07:59:33.084Z,99602.22
2022-11-16T08:02:20.232Z,99578.41
2022-11-16T08:05:07.560Z,99571.34
2022-11-16T08:07:54.063Z,99591.25
2022-11-16T08:10:42.760Z,99572.09
2022-11-16T08:13:32.050Z,99607.16
2022-11-16T08:16:19.978Z,99584.44
2022-11-16T08:19:08.671Z,99595.50
2022-11-16T08:21:54.672Z,99608.72
2022-11-16T08:24:41.474Z,99612.78
2022-11-16T08:27:28.599Z,99596.31
2022-11-16T08:30:16.836Z,99592.50
2022-11-16T08:33:04.208Z,99590.34
2022-11-16T08:35:51.552Z,99598.38
2022-11-16T08:38:38.678Z,99596.19
2022-11-16T08:41:24.681Z,99593.59
2022-11-16T08:44:10.999Z,99610.06
2022-11-16T08:46:59.951Z,99574.63
2022-11-16T08:49:56.393Z,99589.13
2022-11-16T08:52:44.605Z,99592.94
2022-11-16T08:55:29.960Z,99598.91
2022-11-16T08:58:16.826Z,99557.03
2022-11-16T09:01:10.131Z,99586.25
2022-11-16T09:03:56.648Z,99601.94
2022-11-16T09:06:42.526Z,99597.06
2022-11-16T09:09:28.788Z,99601.69
2022-11-16T09:12:14.516Z,99602.50
2022-11-16T09:15:00.548Z,99595.72
2022-11-16T09:17:45.821Z,99599.25
2022-11-16T09:20:31.612Z,99610.94
2022-11-16T09:23:22.290Z,99593.13
2022-11-16T09:26:10.832Z,99597.91
2022-11-16T09:28:58.326Z,99593.59
2022-11-16T09:31:44.812Z,99577.63
2022-11-16T09:34:30.493Z,99581.16
2022-11-16T09:37:16.563Z,99594.41
2022-11-16T09:40:02.330Z,99588.41
2022-11-16T09:43:14.252Z,99568.69
2022-11-16T09:46:07.638Z,99583.88
2022-11-16T09:48:56.926Z,99568.22
2022-11-16T09:51:44.404Z,99584.34
2022-11-16T09:54:33.517Z,99580.53
2022-11-16T09:57:22.812Z,99584.84
2022-11-16T10:00:18.108Z,99583.34
2022-11-16T10:03:11.652Z,99567.84
2022-11-16T10:06:00.980Z,99583.59
2022-11-16T10:08:48.265Z,99571.16
2022-11-16T10:11:55.340Z,99587.94
2022-11-16T10:14:51.108Z,99559.28
2022-11-16T10:17:48.319Z,99587.94
2022-11-16T10:20:49.270Z,99562.25
2022-11-16T10:23:35.497Z,99568.22
2022-11-16T10:26:43.393Z,99531.69
2022-11-16T10:29:54.118Z,99584.91
2022-11-16T10:32:44.120Z,99566.03
2022-11-16T10:35:34.738Z,99582.78
2022-11-16T10:38:28.248Z,99575.72
2022-11-16T10:41:26.287Z,99587.44
2022-11-16T10:44:38.959Z,99571.44
2022-11-16T10:47:41.861Z,99549.00
2022-11-16T10:50:33.829Z,99572.50
2022-11-16T10:53:27.783Z,99547.69
2022-11-16T10:56:17.878Z,99575.25
2022-11-16T10:59:06.736Z,99574.75
2022-11-16T11:01:57.529Z,99580.69
2022-11-16T11:05:06.521Z,99571.78
2022-11-16T11:08:07.759Z,99568.47
2022-11-16T11:11:25.522Z,99573.91
2022-11-16T11:14:14.690Z,99551.97
2022-11-16T11:17:11.299Z,99553.34
2022-11-16T11:20:07.636Z,99565.78
2022-11-16T11:23:03.779Z,99563.88
2022-11-16T11:25:57.387Z,99556.25
2022-11-16T11:28:47.924Z,99536.25
2022-11-16T11:31:42.986Z,99551.09
2022-11-16T11:34:30.406Z,99560.59
2022-11-16T11:37:23.628Z,99533.53
2022-11-16T11:40:29.636Z,99555.09
2022-11-16T11:43:23.762Z,99562.72
2022-11-16T11:46:15.640Z,99552.72
2022-11-16T11:49:08.124Z,99565.97
2022-11-16T11:51:56.708Z,99557.00
2022-11-16T11:54:46.098Z,99555.63
2022-11-16T11:57:34.973Z,99565.91
2022-11-16T12:00:20.896Z,99549.84
2022-11-16T12:03:41.220Z,99545.00
2022-11-16T12:06:52.955Z,99550.38
2022-11-16T12:09:58.184Z,99538.75
2022-11-16T12:13:13.085Z,99534.97
2022-11-16T12:16:05.661Z,99542.88
2022-11-16T12:19:00.157Z,99535.31
2022-11-16T12:22:01.163Z,99562.91
2022-11-16T12:24:52.603Z,99560.22
2022-11-16T12:27:57.650Z,99556.72
2022-11-16T12:31:10.794Z,99554.28
2022-11-16T12:34:34.121Z,99560.81
2022-11-16T12:37:35.444Z,99550.50
2022-11-16T12:40:44.690Z,99548.69
2022-11-16T12:43:48.235Z,99558.50
2022-11-16T12:46:37.179Z,99551.44
2022-11-16T12:49:40.775Z,99533.94
2022-11-16T12:52:45.165Z,99544.97
2022-11-16T12:55:53.531Z,99552.03
2022-11-16T12:58:54.594Z,99536.31
2022-11-16T13:01:55.037Z,99532.56
2022-11-16T13:04:46.007Z,99533.34
2022-11-16T13:07:36.641Z,99516.53
2022-11-16T13:10:27.856Z,99548.78
2022-11-16T13:13:39.337Z,99531.16
2022-11-16T13:16:25.809Z,99517.94
2022-11-16T13:19:13.725Z,99496.81
2022-11-16T13:22:14.089Z,99534.63
2022-11-16T13:25:12.912Z,99502.56
2022-11-16T13:28:12.853Z,99494.69
2022-11-16T13:31:14.953Z,99522.75
2022-11-16T13:34:05.345Z,99522.44
2022-11-16T13:36:51.048Z,99516.25
2022-11-16T13:39:58.808Z,99521.75
2022-11-16T13:42:58.567Z,99492.31
2022-11-16T13:45:52.840Z,99501.97
2022-11-16T13:48:44.598Z,99486.38
2022-11-16T13:51:30.964Z,99489.03
2022-11-16T13:54:46.466Z,99499.53
2022-11-16T13:57:34.007Z,99491.44
2022-11-16T14:00:22.863Z,99500.31
2022-11-16T14:03:17.891Z,99478.75
2022-11-16T14:06:05.431Z,99476.56
2022-11-16T14:08:52.405Z,99504.38
2022-11-16T14:11:39.451Z,99472.56
2022-11-16T14:15:17.103Z,99499.78
2022-11-16T14:18:08.624Z,99507.16
2022-11-16T14:21:18.516Z,99488.84
2022-11-16T14:24:30.884Z,99469.44
2022-11-16T14:27:27.775Z,99494.00
2022-11-16T14:30:25.061Z,99488.16
2022-11-16T14:33:15.003Z,99484.13
2022-11-16T14:36:01.883Z,99470.16
2022-11-16T14:38:47.920Z,99496.03
2022-11-16T14:41:33.768Z,99504.19
2022-11-16T14:44:21.812Z,99499.38
2022-11-16T14:47:28.683Z,99503.44
2022-11-16T14:50:21.401Z,99505.63
2022-11-16T14:53:07.658Z,99497.91
2022-11-16T14:56:11.942Z,99507.06
2022-11-16T14:58:59.830Z,99505.47
2022-11-16T15:01:45.983Z,99508.16
2022-11-16T15:04:32.011Z,99519.03
2022-11-16T15:07:19.297Z,99519.84
2022-11-16T15:10:05.345Z,99495.84
2022-11-16T15:12:51.838Z,99512.06
2022-11-16T15:15:37.726Z,99508.28
2022-11-16T15:18:24.025Z,99500.72
2022-11-16T15:21:22.248Z,99503.66
2022-11-16T15:24:29.219Z,99508.56
2022-11-16T15:27:36.285Z,99509.97
2022-11-16T15:30:24.933Z,99496.78
2022-11-16T15:33:15.507Z,99515.69
2022-11-16T15:36:01.318Z,99505.63
2022-11-16T15:38:47.845Z,99498.91
2022-11-16T15:41:34.317Z,99464.91
2022-11-16T15:44:21.680Z,99498.63
2022-11-16T15:47:10.271Z,99497.56
2022-11-16T15:49:55.874Z,99507.84
2022-11-16T15:52:44.044Z,99497.06
2022-11-16T15:55:34.315Z,99482.22
2022-11-16T15:58:26.645Z,99512.72
2022-11-16T16:01:13.890Z,99503.31
2022-11-16T16:04:05.583Z,99511.09
2022-11-16T16:06:53.594Z,99510.56
2022-11-16T16:09:43.668Z,99516.81
2022-11-16T16:12:32.664Z,99483.91
2022-11-16T16:15:30.096Z,99523.63
2022-11-16T16:18:39.317Z,99520.72
2022-11-16T16:21:27.262Z,99526.94
2022-11-16T16:24:47.081Z,99520.97
2022-11-16T16:27:39.481Z,99516.41
2022-11-16T16:30:25.569Z,99535.66
2022-11-16T16:33:19.285Z,99522.41
2022-11-16T16:36:05.198Z,99532.94
2022-11-16T16:38:51.218Z,99511.34
2022-11-16T16:41:36.791Z,99526.19
2022-11-16T16:44:22.891Z,99518.06
2022-11-16T16:47:09.119Z,99520.00
2022-11-16T16:49:54.970Z,99511.63
2022-11-16T16:52:40.384Z,99524.38
2022-11-16T16:55:26.589Z,99553.34
2022-11-16T16:58:13.312Z,99521.41
2022-11-16T17:01:04.299Z,99532.03
2022-11-16T17:03:49.976Z,99540.44
2022-11-16T17:06:36.260Z,99528.81
2022-11-16T17:09:21.870Z,99541.00
2022-11-16T17:12:08.255Z,99533.47
2022-11-16T17:14:54.020Z,99501.84
2022-11-16T17:17:42.865Z,99551.59
2022-11-16T17:20:28.447Z,99541.06
2022-11-16T17:23:15.515Z,99545.66
2022-11-16T17:26:05.846Z,99548.59
2022-11-16T17:28:55.548Z,99551.53
2022-11-16T17:31:43.661Z,99568.25
2022-11-16T17:34:30.836Z,99547.66
2022-11-16T17:37:16.536Z,99549.53
2022-11-16T17:40:02.487Z,99557.69
2022-11-16T17:42:48.154Z,99568.50
2022-11-16T17:45:34.104Z,99569.03
2022-11-16T17:48:19.624Z,99567.13
2022-11-16T17:51:05.985Z,99549.88
2022-11-16T17:53:51.916Z,99550.41
2022-11-16T17:56:38.788Z,99565.22
2022-11-16T17:59:29.191Z,99564.50
2022-11-16T18:02:16.144Z,99559.66
2022-11-16T18:05:01.615Z,99568.34
2022-11-16T18:07:47.351Z,99562.16
2022-11-16T18:10:32.830Z,99578.91
2022-11-16T18:13:18.886Z,99561.91
2022-11-16T18:16:06.241Z,99563.81
2022-11-16T18:19:00.185Z,99576.81
2022-11-16T18:21:46.704Z,99538.94
2022-11-16T18:24:32.855Z,99582.47
2022-11-16T18:27:18.462Z,99558.94
2022-11-16T18:30:04.887Z,99566.00
2022-11-16T18:32:50.406Z,99570.31
2022-11-16T18:35:36.213Z,99573.59
2022-11-16T18:38:21.578Z,99575.19
2022-11-16T18:41:14.178Z,99557.34
2022-11-16T18:44:01.371Z,99523.56
2022-11-16T18:46:47.592Z,99558.69
2022-11-16T18:49:33.184Z,99573.84
2022-11-16T18:52:19.193Z,99534.94
2022-11-16T18:55:05.679Z,99520.31
2022-11-16T18:57:51.549Z,99573.84
2022-11-16T19:00:37.915Z,99527.91
2022-11-16T19:03:24.021Z,99572.22
2022-11-16T19:06:10.675Z,99557.09
2022-11-16T19:08:59.756Z,99568.44
2022-11-16T19:11:45.376Z,99577.03
2022-11-16T19:14:32.091Z,99578.41
2022-11-16T19:17:19.266Z,99555.97
2022-11-16T19:20:06.300Z,99559.22
2022-11-16T19:22:52.012Z,99560.84
2022-11-16T19:25:38.290Z,99568.63
2022-11-16T19:28:23.957Z,99550.00
2022-11-16T19:31:14.202Z,99558.66
2022-11-16T19:34:05.191Z,99555.97
2022-11-16T19:36:51.422Z,99573.84
2022-11-16T19:39:36.932Z,99530.28
2022-11-16T19:42:23.288Z,99554.31
2022-11-16T19:45:09.191Z,99560.53
2022-11-16T19:47:56.309Z,99576.44
2022-11-16T19:50:41.949Z,99560.81
2022-11-16T19:53:28.101Z,99564.59
2022-11-16T19:56:15.493Z,99579.72
2022-11-16T19:59:01.918Z,99556.47
2022-11-16T20:01:47.747Z,99571.59
2022-11-16T20:04:34.441Z,99549.47
2022-11-16T20:07:21.299Z,99552.13
2022-11-16T20:10:07.638Z,99556.97
2022-11-16T20:12:53.395Z,99562.63
2022-11-16T20:15:39.317Z,99537.00
2022-11-16T20:18:24.960Z,99535.38
2022-11-16T20:21:33.204Z,99572.97
2022-11-16T20:24:18.874Z,99560.81
2022-11-16T20:27:05.477Z,99568.91
2022-11-16T20:29:50.893Z,99555.94
2022-11-16T20:32:36.848Z,99527.81
2022-11-16T20:35:22.454Z,99554.84
2022-11-16T20:38:08.666Z,99560.00
2022-11-16T20:40:54.112Z,99549.97
2022-11-16T20:43:41.153Z,99551.38
2022-11-16T20:46:28.988Z,99557.03
2022-11-16T20:49:15.151Z,99552.66
2022-11-16T20:52:00.926Z,99552.91
2022-11-16T20:54:46.648Z,99564.78
2022-11-16T20:57:32.109Z,99540.72
2022-11-16T21:00:19.185Z,99539.94
2022-11-16T21:03:04.720Z,99569.97
2022-11-16T21:05:52.223Z,99530.47
2022-11-16T21:08:38.440Z,99535.28
2022-11-16T21:11:27.017Z,99545.28
2022-11-16T21:14:18.774Z,99567.22
2022-11-16T21:17:05.102Z,99550.19
2022-11-16T21:20:20.102Z,99542.59
2022-11-16T21:22:57.614Z,99551.78
2022-11-16T21:25:43.252Z,99539.09
2022-11-16T21:28:30.062Z,99565.63
2022-11-16T21:31:18.013Z,99556.44
2022-11-16T21:34:05.881Z,99560.19
2022-11-16T21:36:52.361Z,99561.03
2022-11-16T21:39:38.495Z,99518.56
2022-11-16T21:42:24.253Z,99548.28
2022-11-16T21:45:10.716Z,99546.88
2022-11-16T21:47:56.539Z,99547.72
2022-11-16T21:50:43.028Z,99554.16
2022-11-16T21:53:28.861Z,99567.72
2022-11-16T21:56:20.178Z,99578.78
2022-11-16T21:59:05.948Z,99538.53
2022-11-16T22:02:01.264Z,99561.25
2022-11-16T22:05:22.374Z,99559.53
2022-11-16T22:08:11.639Z,99546.56
2022-11-16T22:15:37.522Z,99576.84
2022-11-16T22:18:24.097Z,99530.41
2022-11-16T22:21:10.898Z,99573.13
2022-11-16T22:23:57.535Z,99573.13
2022-11-16T22:26:43.838Z,99553.66
2022-11-16T22:29:30.366Z,99570.09
2022-11-16T22:32:16.626Z,99567.16
2022-11-16T22:35:03.245Z,99549.25
2022-11-16T22:37:49.230Z,99543.81
2022-11-16T22:40:36.129Z,99536.53
2022-11-16T22:43:24.958Z,99531.66
2022-11-16T22:46:11.213Z,99513.59
2022-11-16T22:48:57.307Z,99545.16
2022-11-16T22:51:43.575Z,99533.31
2022-11-16T22:54:31.047Z,99547.63
2022-11-16T22:57:17.590Z,99547.56
2022-11-16T23:00:05.710Z,99539.50
2022-11-16T23:02:52.196Z,99507.91
2022-11-16T23:05:38.653Z,99528.34
2022-11-16T23:08:25.091Z,99508.16
2022-11-16T23:11:40.778Z,99533.28
2022-11-16T23:14:45.495Z,99529.00
2022-11-16T23:17:31.760Z,99516.88
2022-11-16T23:20:37.082Z,99529.03
2022-11-16T23:23:41.489Z,99543.91
2022-11-16T23:26:46.427Z,99528.50
2022-11-16T23:29:32.772Z,99532.03
2022-11-16T23:32:19.015Z,99536.31
2022-11-16T23:35:05.595Z,99487.97
2022-11-16T23:37:56.105Z,99514.16
2022-11-16T23:40:42.285Z,99518.22
2022-11-16T23:43:46.932Z,99522.19
2022-11-16T23:46:33.591Z,99518.47
2022-11-16T23:49:19.735Z,99504.13
2022-11-16T23:52:05.899Z,99478.72
2022-11-16T23:54:52.492Z,99516.00
2022-11-16T23:57:38.364Z,99504.13
